Latest Weather Observations for Julia Creek

IDQ60801

Issued at 11:02 am EST Thursday 25 May 2017 (issued every 30 minutes, with the page automatically refreshed every 10 minutes)

About weather observations | Map of weather stations | Latest weather observations for QLD | Other Formats
Station Details ID: 029058 Name: JULIA CREEK AIRPORT Lat: -20.67 Lon: 141.72 Height: 122.5 m
Data from the previous 72 hours. | See also: Recent months at Julia Creek
Date/Time
EST
Temp
°C
App
Temp
°C
Dew
Point
°C
Rel
Hum
%
Delta-T
°C
Wind Press
QNH
hPa
Press
MSL
hPa
Rain since
9am
mm
Dir  Spd
km/h
Gust
km/h
Spd
kts
Gust
kts
25/11:00am 29.3 25.4 7.2 25 11.9 ESE 17 24 9 13 1018.8 1018.4 0.0
25/10:30am 28.4 24.5 7.1 26 11.4 SE 17 24 9 13 1019.2 1018.8 0.0
25/10:00am 27.4 23.9 7.3 28 10.7 ESE 15 20 8 11 1019.2 1018.8 0.0
25/09:30am 25.9 22.4 7.0 30 10.0 SE 15 19 8 10 1019.1 1018.7 0.0
25/09:00am 24.5 21.4 7.2 33 9.1 SE 13 17 7 9 1019.1 1018.7 0.0
25/08:30am 21.8 19.5 7.6 40 7.4 SE 9 13 5 7 1018.9 1018.5 0.0
25/08:00am 18.6 16.2 7.1 47 5.8 SSE 9 13 5 7 1018.7 1018.3 0.0
25/07:30am 15.0 12.1 6.3 56 4.2 SSE 11 13 6 7 1018.4 1017.9 0.0
25/07:00am 14.7 11.5 6.8 59 3.9 S 13 15 7 8 1018.2 1017.7 0.0
25/06:30am 13.4 10.3 5.6 59 3.7 S 11 13 6 7 1018.0 1017.5 0.0
25/06:00am 14.0 11.8 6.1 59 3.8 S 7 9 4 5 1017.6 1017.1 0.0
25/05:30am 14.3 10.6 6.4 59 3.8 SSW 15 19 8 10 1017.5 1017.0 0.0
25/05:00am 13.3 9.7 5.0 57 3.9 S 13 15 7 8 1017.0 1016.5 0.0
25/04:30am 13.4 10.4 4.3 54 4.2 SE 9 11 5 6 1016.8 1016.3 0.0
25/04:00am 13.6 10.7 4.5 54 4.2 SE 9 11 5 6 1016.7 1016.2 0.0
25/03:30am 13.7 10.7 4.3 53 4.3 SE 9 9 5 5 1016.7 1016.2 0.0
25/03:00am 14.2 11.3 4.8 53 4.4 SE 9 9 5 5 1016.8 1016.3 0.0
25/02:30am 14.2 10.9 4.5 52 4.5 SE 11 11 6 6 1016.8 1016.3 0.0
25/02:00am 14.7 11.8 4.4 50 4.8 SE 9 11 5 6 1017.1 1016.6 0.0
25/01:30am 15.3 12.1 5.0 50 4.9 SE 11 13 6 7 1017.3 1016.8 0.0
25/01:00am 14.8 11.8 4.2 49 4.9 SE 9 11 5 6 1017.4 1016.9 0.0
25/12:30am 15.4 12.1 4.5 48 5.1 SE 11 13 6 7 1017.4 1016.9 0.0
25/12:00am 15.7 12.4 4.7 48 5.2 SE 11 11 6 6 1017.6 1017.1 0.0
 
Date/Time
EST
Temp
°C
App
Temp
°C
Dew
Point
°C
Rel
Hum
%
Delta-T
°C
Wind Press
QNH
hPa
Press
MSL
hPa
Rain since
9am
mm
Dir  Spd
km/h
Gust
km/h
Spd
kts
Gust
kts
24/11:30pm 16.4 13.7 5.4 48 5.3 SE 9 11 5 6 1017.8 1017.3 0.0
24/11:00pm 16.2 12.5 4.6 46 5.5 SE 13 13 7 7 1017.9 1017.4 0.0
24/10:30pm 17.8 14.7 5.4 44 6.0 SE 11 13 6 7 1017.8 1017.3 0.0
24/10:00pm 18.5 15.4 5.4 42 6.4 SE 11 13 6 7 1017.8 1017.3 0.0
24/09:30pm 19.9 16.8 5.5 39 7.1 SE 11 13 6 7 1017.7 1017.2 0.0
24/09:00pm 21.5 18.4 5.4 35 8.0 SE 11 15 6 8 1017.6 1017.1 0.0
24/08:30pm 22.5 19.2 6.3 35 8.3 SE 13 17 7 9 1017.3 1016.8 0.0
24/08:00pm 22.7 19.3 6.0 34 8.5 SE 13 15 7 8 1017.0 1016.5 0.0
24/07:30pm 22.7 19.5 5.2 32 8.8 SE 11 13 6 7 1016.7 1016.2 0.0
24/07:00pm 25.5 22.2 6.2 29 10.0 SSE 13 17 7 9 1016.3 1015.8 0.0
24/06:30pm 27.0 23.6 5.9 26 11.0 SE 13 17 7 9 1016.1 1015.6 0.0
24/06:00pm 29.2 25.1 6.0 23 12.3 SE 17 22 9 12 1015.8 1015.3 0.0
24/05:30pm 30.9 25.4 6.0 21 13.3 SE 24 35 13 19 1015.4 1014.9 0.0
24/05:00pm 31.7 25.8 6.0 20 13.8 SE 26 33 14 18 1015.2 1014.7 0.0
24/04:30pm 32.3 26.6 6.5 20 14.0 SE 26 37 14 20 1015.0 1014.5 0.0
24/04:00pm 32.6 26.9 6.7 20 14.1 SE 26 41 14 22 1015.0 1014.5 0.0
24/03:30pm 32.7 26.4 7.5 21 13.9 ESE 30 39 16 21 1014.9 1014.4 0.0
24/03:00pm 32.8 27.3 7.6 21 14.0 SE 26 39 14 21 1015.1 1014.6 0.0
24/02:30pm 33.4 27.8 8.8 22 13.9 ESE 28 41 15 22 1015.3 1014.8 0.0
24/02:00pm 32.9 27.4 7.7 21 14.0 SE 26 41 14 22 1015.7 1015.2 0.0
24/01:30pm 32.3 26.3 7.2 21 13.8 SE 28 41 15 22 1016.2 1015.7 0.0
24/01:00pm 32.3 26.3 8.5 23 13.3 ESE 30 41 16 22 1016.9 1016.4 0.0
24/12:30pm 31.6 25.2 8.6 24 12.9 SE 32 41 17 22 1017.4 1016.9 0.0
24/12:00pm 31.5 25.2 9.1 25 12.6 ESE 32 46 17 25 1017.9 1017.4 0.0
24/11:30am 30.6 24.7 10.5 29 11.5 SE 32 41 17 22 1018.2 1017.7 0.0
24/11:00am 30.1 25.4 12.1 33 10.6 ESE 28 39 15 21 1018.5 1018.1 0.0
24/10:30am 29.2 25.5 13.8 39 9.3 E 26 32 14 17 1018.8 1018.4 0.0
24/10:00am 27.9 24.9 14.9 45 7.9 E 24 32 13 17 1019.1 1018.7 0.0
24/09:30am 26.7 25.0 15.7 51 6.7 E 19 26 10 14 1019.1 1018.7 0.0
24/09:00am 24.6 23.6 15.5 57 5.5 ESE 15 20 8 11 1019.1 1018.7 0.0
24/08:30am 22.0 20.6 14.4 62 4.5 ESE 15 19 8 10 1018.8 1018.4 0.0
24/08:00am 19.8 18.5 13.7 68 3.5 ESE 13 17 7 9 1018.5 1018.1 0.0
24/07:30am 17.6 16.4 12.7 73 2.7 SE 11 15 6 8 1018.1 1017.6 0.0
24/07:00am 16.6 15.1 12.0 74 2.5 SE 11 13 6 7 1017.8 1017.3 0.0
24/06:30am 16.4 14.9 11.8 74 2.5 SE 11 13 6 7 1017.4 1016.9 0.0
24/06:00am 16.3 14.9 11.0 71 2.8 SE 9 9 5 5 1016.9 1016.4 0.0
24/05:30am 17.0 15.8 11.5 70 3.0 SE 9 11 5 6 1016.7 1016.2 0.0
24/05:00am 17.4 16.1 11.4 68 3.3 SE 9 11 5 6 1016.6 1016.1 0.0
24/04:30am 17.9 16.3 11.5 66 3.5 SE 11 11 6 6 1016.4 1015.9 0.0
24/04:00am 18.5 16.9 11.6 64 3.8 SE 11 13 6 7 1016.3 1015.8 0.0
24/03:30am 19.2 17.6 11.7 62 4.2 SE 11 13 6 7 1016.3 1015.8 0.0
24/03:00am 19.7 17.9 12.0 61 4.3 SE 13 15 7 8 1016.5 1016.0 0.0
24/02:30am 19.6 18.0 11.4 59 4.5 SE 11 13 6 7 1016.5 1016.0 0.0
24/02:00am 20.1 18.5 11.6 58 4.7 ESE 11 13 6 7 1016.4 1015.9 0.0
24/01:30am 20.6 18.5 11.2 55 5.2 ESE 13 15 7 8 1016.5 1016.0 0.0
24/01:00am 21.6 19.2 11.3 52 5.7 SE 15 19 8 10 1016.4 1015.9 0.0
24/12:30am 22.0 20.0 11.4 51 5.9 SSE 13 17 7 9 1016.5 1016.0 0.0
24/12:00am 22.0 19.9 11.1 50 6.1 SSE 13 15 7 8 1016.7 1016.2 0.0
 
Date/Time
EST
Temp
°C
App
Temp
°C
Dew
Point
°C
Rel
Hum
%
Delta-T
°C
Wind Press
QNH
hPa
Press
MSL
hPa
Rain since
9am
mm
Dir  Spd
km/h
Gust
km/h
Spd
kts
Gust
kts
23/11:30pm 21.9 19.8 11.0 50 6.1 SSE 13 15 7 8 1016.8 1016.3 0.0
23/11:00pm 22.3 20.6 11.1 49 6.2 SSE 11 15 6 8 1016.9 1016.4 0.0
23/10:30pm 22.9 20.8 11.0 47 6.6 SSE 13 15 7 8 1016.8 1016.3 0.0
23/10:00pm 23.8 21.3 11.2 45 7.1 SSE 15 17 8 9 1016.7 1016.2 0.0
23/09:30pm 23.3 21.2 11.0 46 6.9 SSE 13 15 7 8 1016.6 1016.1 0.0
23/09:00pm 23.4 21.1 10.5 44 7.1 SSE 13 15 7 8 1016.2 1015.7 0.0
23/08:30pm 23.8 22.0 10.8 44 7.3 SSE 11 15 6 8 1015.9 1015.4 0.0
23/08:00pm 24.7 22.5 10.9 42 7.8 SSE 13 15 7 8 1015.6 1015.1 0.0
23/07:30pm 25.0 23.1 10.5 40 8.1 SSE 11 13 6 7 1015.3 1014.8 0.0
23/07:00pm 26.4 24.5 10.5 37 8.9 SSE 11 13 6 7 1014.9 1014.4 0.0
23/06:30pm 27.7 25.9 10.9 35 9.6 SE 11 13 6 7 1014.6 1014.1 0.0
23/06:00pm 29.9 27.5 11.4 32 10.7 SE 15 24 8 13 1014.4 1013.9 0.0
23/05:30pm 31.1 28.1 12.0 31 11.3 SE 19 28 10 15 1014.1 1013.6 0.0
23/05:00pm 31.8 28.5 11.6 29 11.9 SE 20 28 11 15 1014.0 1013.5 0.0
23/04:30pm 32.4 29.3 11.6 28 12.2 SE 19 32 10 17 1013.8 1013.4 0.0
23/04:00pm 32.5 30.0 12.2 29 12.1 SE 17 28 9 15 1013.8 1013.4 0.0
23/03:30pm 32.5 29.4 12.2 29 12.1 ESE 20 30 11 16 1014.0 1013.5 0.0
23/03:00pm 32.8 30.5 11.9 28 12.4 SE 15 24 8 13 1014.1 1013.6 0.0
23/02:30pm 32.6 29.4 11.2 27 12.5 ESE 19 33 10 18 1014.2 1013.7 0.0
23/02:00pm 32.8 29.6 11.3 27 12.6 ESE 19 35 10 19 1014.5 1014.0 0.0
23/01:30pm 32.0 28.6 11.2 28 12.2 ESE 20 30 11 16 1014.9 1014.4 0.0
23/01:00pm 31.9 28.7 11.1 28 12.1 E 19 32 10 17 1015.6 1015.1 0.0
23/12:30pm 30.8 27.8 10.7 29 11.6 ESE 17 30 9 16 1016.3 1015.8 0.0
23/12:00pm 30.9 27.7 11.3 30 11.4 E 19 28 10 15 1016.9 1016.4 0.0
23/11:30am 30.0 26.8 12.0 33 10.6 E 20 32 11 17 1017.4 1016.9 0.0
23/11:00am 29.4 26.7 12.8 36 9.8 E 19 28 10 15 1017.7 1017.2 0.0
23/10:30am 28.6 26.2 13.7 40 8.9 E 19 30 10 16 1017.9 1017.4 0.0
23/10:00am 27.1 24.9 14.8 47 7.4 E 20 26 11 14 1018.2 1017.7 0.0
23/09:30am 25.8 23.8 15.5 53 6.3 ESE 20 26 11 14 1018.2 1017.7 0.0
23/09:00am 24.4 22.9 15.3 57 5.5 ESE 17 22 9 12 1018.2 1017.7 0.0
23/08:30am 22.0 20.3 14.6 63 4.4 E 17 24 9 13 1018.0 1017.5 0.0
23/08:00am 18.5 16.2 11.8 65 3.7 ESE 15 19 8 10 1017.7 1017.2 0.0
23/07:30am 16.1 14.2 10.4 69 3.0 ESE 11 15 6 8 1017.4 1016.9 0.0
23/07:00am 14.6 12.0 9.4 71 2.7 SE 13 17 7 9 1017.1 1016.6 0.0
23/06:30am 15.2 12.9 9.1 67 3.1 ESE 11 13 6 7 1016.8 1016.3 0.0
23/06:00am 15.8 13.3 9.7 67 3.2 ESE 13 15 7 8 1016.5 1016.0 0.0
23/05:30am 15.1 12.4 8.8 66 3.2 SE 13 15 7 8 1016.3 1015.8 0.0
23/05:00am 14.1 11.7 6.9 62 3.5 ESE 9 11 5 6 1016.0 1015.5 0.0
23/04:30am 14.9 12.2 7.5 61 3.7 SE 11 13 6 7 1016.0 1015.5 0.0
23/04:00am 15.4 12.7 7.4 59 4.0 SE 11 15 6 8 1016.1 1015.6 0.0
23/03:30am 15.7 13.0 7.2 57 4.2 SE 11 13 6 7 1016.1 1015.6 0.0
23/03:00am 15.8 13.0 6.8 55 4.4 ESE 11 13 6 7 1016.3 1015.8 0.0
23/02:30am 16.1 13.0 7.1 55 4.5 ESE 13 15 7 8 1016.4 1015.9 0.0
23/02:00am 16.3 13.5 7.0 54 4.6 SE 11 15 6 8 1016.4 1015.9 0.0
23/01:30am 16.0 13.1 6.4 53 4.7 ESE 11 11 6 6 1016.3 1015.8 0.0
23/01:00am 16.8 13.9 6.6 51 5.0 ESE 11 13 6 7 1016.4 1015.9 0.0
23/12:30am 17.0 14.0 6.2 49 5.3 ESE 11 13 6 7 1016.5 1016.0 0.0
23/12:00am 18.1 15.1 6.0 45 6.0 ESE 11 13 6 7 1016.8 1016.3 0.0
 
Date/Time
EST
Temp
°C
App
Temp
°C
Dew
Point
°C
Rel
Hum
%
Delta-T
°C
Wind Press
QNH
hPa
Press
MSL
hPa
Rain since
9am
mm
Dir  Spd
km/h
Gust
km/h
Spd
kts
Gust
kts
22/11:30pm 19.4 16.1 6.2 42 6.6 ESE 13 15 7 8 1016.8 1016.3 0.0
22/11:00pm 20.2 16.9 6.2 40 7.0 ESE 13 15 7 8 1016.7 1016.2 0.0
22/10:30pm 20.9 17.5 6.1 38 7.5 SE 13 17 7 9 1016.8 1016.3 0.0
22/10:00pm 21.2 17.4 5.9 37 7.7 SE 15 17 8 9 1016.9 1016.4 0.0
22/09:30pm 21.5 17.7 5.8 36 7.9 SE 15 17 8 9 1016.8 1016.3 0.0
22/09:00pm 22.4 18.6 5.8 34 8.4 SE 15 19 8 10 1016.5 1016.0 0.0
22/08:30pm 22.1 18.6 5.5 34 8.3 SE 13 15 7 8 1016.3 1015.8 0.0
22/08:00pm 21.7 18.1 5.2 34 8.2 SSE 13 15 7 8 1015.9 1015.4 0.0
22/07:30pm 23.2 19.6 5.2 31 9.1 SE 13 15 7 8 1015.4 1014.9 0.0
22/07:00pm 24.4 20.8 5.2 29 9.7 SE 13 13 7 7 1014.9 1014.4 0.0
22/06:30pm 26.4 23.3 5.4 26 10.8 SE 11 13 6 7 1014.7 1014.2 0.0
22/06:00pm 29.2 25.4 6.0 23 12.3 SE 15 20 8 11 1014.5 1014.0 0.0
22/05:30pm 31.1 27.8 6.2 21 13.4 SSE 13 20 7 11 1014.3 1013.8 0.0
22/05:00pm 31.9 29.3 6.2 20 13.9 SE 9 19 5 10 1014.1 1013.6 0.0
22/04:30pm 32.3 28.6 6.5 20 14.0 S 15 26 8 14 1013.8 1013.4 0.0
22/04:00pm 32.2 28.1 6.4 20 14.0 ESE 17 22 9 12 1013.5 1013.1 0.0
22/03:30pm 32.8 28.9 6.9 20 14.2 SE 17 30 9 16 1013.6 1013.2 0.0
22/03:00pm 32.8 30.4 6.9 20 14.2 ESE 9 22 5 12 1013.7 1013.3 0.0
22/02:30pm 33.9 31.1 7.0 19 14.8 ESE 11 19 6 10 1013.7 1013.3 0.0
22/02:00pm 33.7 30.7 7.6 20 14.5 E 13 22 7 12 1014.1 1013.6 0.0
22/01:30pm 32.8 30.5 7.6 21 14.0 ESE 9 20 5 11 1014.6 1014.1 0.0
22/01:00pm 32.9 30.6 9.0 23 13.5 E 11 22 6 12 1015.2 1014.7 0.0
22/12:30pm 32.7 29.4 8.2 22 13.7 E 15 26 8 14 1015.8 1015.3 0.0
22/12:00pm 32.0 28.2 7.6 22 13.5 ENE 17 24 9 13 1016.2 1015.7 0.0
22/11:30am 31.1 29.0 9.9 27 12.1 ENE 11 22 6 12 1016.7 1016.2 0.0

Other Formats:

Comma delimited format used in spreadsheet applications
http://www.bom.gov.au/fwo/IDQ60801/IDQ60801.94337.axf

JavaScript Object Notation format (JSON) in row-major order
http://www.bom.gov.au/fwo/IDQ60801/IDQ60801.94337.json